sensor_id;sensor_type;location;lat;lon;timestamp;temperature;humidity
75683;HTU21D;64295;44.772;39.872;2023-12-22T00:02:08;11.29;62.20
75683;HTU21D;64295;44.772;39.872;2023-12-22T00:04:34;11.29;62.24
75683;HTU21D;64295;44.772;39.872;2023-12-22T00:07:00;11.28;62.28
75683;HTU21D;64295;44.772;39.872;2023-12-22T00:09:26;11.28;62.31
75683;HTU21D;64295;44.772;39.872;2023-12-22T00:11:51;11.26;62.34
75683;HTU21D;64295;44.772;39.872;2023-12-22T00:14:17;11.25;62.37
75683;HTU21D;64295;44.772;39.872;2023-12-22T00:16:43;11.26;62.41
75683;HTU21D;64295;44.772;39.872;2023-12-22T00:19:09;11.23;62.47
75683;HTU21D;64295;44.772;39.872;2023-12-22T00:21:35;11.20;62.50
75683;HTU21D;64295;44.772;39.872;2023-12-22T00:24:01;11.18;62.56
75683;HTU21D;64295;44.772;39.872;2023-12-22T00:26:26;11.17;62.60
75683;HTU21D;64295;44.772;39.872;2023-12-22T00:28:52;11.15;62.64
75683;HTU21D;64295;44.772;39.872;2023-12-22T00:31:18;11.14;62.68
75683;HTU21D;64295;44.772;39.872;2023-12-22T00:33:44;11.13;62.73
75683;HTU21D;64295;44.772;39.872;2023-12-22T00:36:10;11.09;62.80
75683;HTU21D;64295;44.772;39.872;2023-12-22T00:38:36;11.04;62.87
75683;HTU21D;64295;44.772;39.872;2023-12-22T00:41:02;11.00;62.96
75683;HTU21D;64295;44.772;39.872;2023-12-22T00:43:28;10.96;63.07
75683;HTU21D;64295;44.772;39.872;2023-12-22T00:45:54;10.94;63.13
75683;HTU21D;64295;44.772;39.872;2023-12-22T00:48:19;10.90;63.17
75683;HTU21D;64295;44.772;39.872;2023-12-22T00:50:45;10.85;63.24
75683;HTU21D;64295;44.772;39.872;2023-12-22T00:53:11;10.83;63.31
75683;HTU21D;64295;44.772;39.872;2023-12-22T00:55:37;10.78;63.39
75683;HTU21D;64295;44.772;39.872;2023-12-22T00:58:03;10.72;63.51
75683;HTU21D;64295;44.772;39.872;2023-12-22T01:00:29;10.65;63.62
75683;HTU21D;64295;44.772;39.872;2023-12-22T01:02:55;10.60;63.73
75683;HTU21D;64295;44.772;39.872;2023-12-22T01:05:20;10.57;63.77
75683;HTU21D;64295;44.772;39.872;2023-12-22T01:07:46;10.55;63.81
75683;HTU21D;64295;44.772;39.872;2023-12-22T01:10:12;10.55;63.80
75683;HTU21D;64295;44.772;39.872;2023-12-22T01:12:38;10.52;63.82
75683;HTU21D;64295;44.772;39.872;2023-12-22T01:15:04;10.44;63.93
75683;HTU21D;64295;44.772;39.872;2023-12-22T01:17:31;10.40;64.06
75683;HTU21D;64295;44.772;39.872;2023-12-22T01:19:56;10.37;64.14
75683;HTU21D;64295;44.772;39.872;2023-12-22T01:22:22;10.35;64.18
75683;HTU21D;64295;44.772;39.872;2023-12-22T01:24:48;10.34;64.17
75683;HTU21D;64295;44.772;39.872;2023-12-22T01:27:15;10.34;64.19
75683;HTU21D;64295;44.772;39.872;2023-12-22T01:29:40;10.34;64.18
75683;HTU21D;64295;44.772;39.872;2023-12-22T01:32:06;10.37;64.16
75683;HTU21D;64295;44.772;39.872;2023-12-22T01:34:32;10.39;64.11
75683;HTU21D;64295;44.772;39.872;2023-12-22T01:36:58;10.37;64.14
75683;HTU21D;64295;44.772;39.872;2023-12-22T01:39:25;10.41;64.11
75683;HTU21D;64295;44.772;39.872;2023-12-22T01:41:50;10.43;64.09
75683;HTU21D;64295;44.772;39.872;2023-12-22T01:44:16;10.41;64.14
75683;HTU21D;64295;44.772;39.872;2023-12-22T01:46:42;10.39;64.23
75683;HTU21D;64295;44.772;39.872;2023-12-22T01:49:08;10.40;64.24
75683;HTU21D;64295;44.772;39.872;2023-12-22T01:51:36;10.39;64.25
75683;HTU21D;64295;44.772;39.872;2023-12-22T01:54:09;10.41;64.26
75683;HTU21D;64295;44.772;39.872;2023-12-22T01:56:35;10.39;64.30
75683;HTU21D;64295;44.772;39.872;2023-12-22T01:59:02;10.39;64.31
75683;HTU21D;64295;44.772;39.872;2023-12-22T02:01:28;10.38;64.40
75683;HTU21D;64295;44.772;39.872;2023-12-22T02:03:55;10.37;64.43
75683;HTU21D;64295;44.772;39.872;2023-12-22T02:06:22;10.38;64.48
75683;HTU21D;64295;44.772;39.872;2023-12-22T02:08:49;10.38;64.50
75683;HTU21D;64295;44.772;39.872;2023-12-22T02:11:15;10.38;64.52
75683;HTU21D;64295;44.772;39.872;2023-12-22T02:13:42;10.39;64.55
75683;HTU21D;64295;44.772;39.872;2023-12-22T02:16:20;10.36;64.64
75683;HTU21D;64295;44.772;39.872;2023-12-22T02:18:50;10.33;64.71
75683;HTU21D;64295;44.772;39.872;2023-12-22T02:21:18;10.27;64.84
75683;HTU21D;64295;44.772;39.872;2023-12-22T02:23:44;10.28;64.84
75683;HTU21D;64295;44.772;39.872;2023-12-22T02:26:17;10.26;64.85
75683;HTU21D;64295;44.772;39.872;2023-12-22T02:28:45;10.21;64.98
75683;HTU21D;64295;44.772;39.872;2023-12-22T02:31:18;10.14;65.14
75683;HTU21D;64295;44.772;39.872;2023-12-22T02:33:49;10.12;65.17
75683;HTU21D;64295;44.772;39.872;2023-12-22T02:36:20;10.07;65.25
75683;HTU21D;64295;44.772;39.872;2023-12-22T02:38:48;10.04;65.35
75683;HTU21D;64295;44.772;39.872;2023-12-22T02:41:15;10.01;65.39
75683;HTU21D;64295;44.772;39.872;2023-12-22T02:43:41;9.98;65.42
75683;HTU21D;64295;44.772;39.872;2023-12-22T02:46:14;9.95;65.49
75683;HTU21D;64295;44.772;39.872;2023-12-22T02:48:40;9.94;65.53
75683;HTU21D;64295;44.772;39.872;2023-12-22T02:51:06;9.93;65.53
75683;HTU21D;64295;44.772;39.872;2023-12-22T02:53:32;9.91;65.58
75683;HTU21D;64295;44.772;39.872;2023-12-22T02:55:58;9.93;65.56
75683;HTU21D;64295;44.772;39.872;2023-12-22T02:58:24;9.98;65.46
75683;HTU21D;64295;44.772;39.872;2023-12-22T03:00:50;9.97;65.46
75683;HTU21D;64295;44.772;39.872;2023-12-22T03:03:16;9.98;65.48
75683;HTU21D;64295;44.772;39.872;2023-12-22T03:05:42;9.95;65.54
75683;HTU21D;64295;44.772;39.872;2023-12-22T03:08:08;9.93;65.58
75683;HTU21D;64295;44.772;39.872;2023-12-22T03:10:34;9.88;65.68
75683;HTU21D;64295;44.772;39.872;2023-12-22T03:12:59;9.88;65.72
75683;HTU21D;64295;44.772;39.872;2023-12-22T03:15:25;9.90;65.66
75683;HTU21D;64295;44.772;39.872;2023-12-22T03:17:52;9.91;65.65
75683;HTU21D;64295;44.772;39.872;2023-12-22T03:20:18;9.90;65.66
75683;HTU21D;64295;44.772;39.872;2023-12-22T03:22:44;9.88;65.72
75683;HTU21D;64295;44.772;39.872;2023-12-22T03:25:10;9.84;65.79
75683;HTU21D;64295;44.772;39.872;2023-12-22T03:27:36;9.84;65.84
75683;HTU21D;64295;44.772;39.872;2023-12-22T03:30:02;9.83;65.85
75683;HTU21D;64295;44.772;39.872;2023-12-22T03:32:29;9.83;65.86
75683;HTU21D;64295;44.772;39.872;2023-12-22T03:34:55;9.86;65.85
75683;HTU21D;64295;44.772;39.872;2023-12-22T03:37:21;9.89;65.80
75683;HTU21D;64295;44.772;39.872;2023-12-22T03:39:47;9.92;65.75
75683;HTU21D;64295;44.772;39.872;2023-12-22T03:42:12;9.93;65.75
75683;HTU21D;64295;44.772;39.872;2023-12-22T03:44:47;9.94;65.78
75683;HTU21D;64295;44.772;39.872;2023-12-22T03:47:13;9.95;65.78
75683;HTU21D;64295;44.772;39.872;2023-12-22T03:49:40;9.95;65.83
75683;HTU21D;64295;44.772;39.872;2023-12-22T03:52:06;9.92;65.89
75683;HTU21D;64295;44.772;39.872;2023-12-22T03:54:32;9.89;65.97
75683;HTU21D;64295;44.772;39.872;2023-12-22T03:56:58;9.80;66.12
75683;HTU21D;64295;44.772;39.872;2023-12-22T03:59:24;9.77;66.26
75683;HTU21D;64295;44.772;39.872;2023-12-22T04:01:51;9.75;66.30
75683;HTU21D;64295;44.772;39.872;2023-12-22T04:04:18;9.74;66.35
75683;HTU21D;64295;44.772;39.872;2023-12-22T04:06:44;9.70;66.35
75683;HTU21D;64295;44.772;39.872;2023-12-22T04:09:11;9.70;66.39
75683;HTU21D;64295;44.772;39.872;2023-12-22T04:11:37;9.70;66.37
75683;HTU21D;64295;44.772;39.872;2023-12-22T04:14:03;9.69;66.40
75683;HTU21D;64295;44.772;39.872;2023-12-22T04:16:28;9.69;66.42
75683;HTU21D;64295;44.772;39.872;2023-12-22T04:18:54;9.68;66.43
75683;HTU21D;64295;44.772;39.872;2023-12-22T04:21:20;9.67;66.46
75683;HTU21D;64295;44.772;39.872;2023-12-22T04:23:46;9.67;66.46
75683;HTU21D;64295;44.772;39.872;2023-12-22T04:26:12;9.68;66.46
75683;HTU21D;64295;44.772;39.872;2023-12-22T04:28:38;9.66;66.47
75683;HTU21D;64295;44.772;39.872;2023-12-22T04:31:04;9.61;66.53
75683;HTU21D;64295;44.772;39.872;2023-12-22T04:33:32;9.55;66.65
75683;HTU21D;64295;44.772;39.872;2023-12-22T04:35:57;9.54;66.69
75683;HTU21D;64295;44.772;39.872;2023-12-22T04:38:23;9.52;66.72
75683;HTU21D;64295;44.772;39.872;2023-12-22T04:40:49;9.48;66.78
75683;HTU21D;64295;44.772;39.872;2023-12-22T04:43:15;9.46;66.84
75683;HTU21D;64295;44.772;39.872;2023-12-22T04:45:41;9.41;66.87
75683;HTU21D;64295;44.772;39.872;2023-12-22T04:48:07;9.37;66.91
75683;HTU21D;64295;44.772;39.872;2023-12-22T04:50:33;9.35;66.91
75683;HTU21D;64295;44.772;39.872;2023-12-22T04:52:59;9.34;66.95
75683;HTU21D;64295;44.772;39.872;2023-12-22T04:55:25;9.33;66.91
75683;HTU21D;64295;44.772;39.872;2023-12-22T04:57:51;9.33;66.88
75683;HTU21D;64295;44.772;39.872;2023-12-22T05:00:17;9.33;66.88
75683;HTU21D;64295;44.772;39.872;2023-12-22T05:02:43;9.32;66.88
75683;HTU21D;64295;44.772;39.872;2023-12-22T05:05:10;9.33;66.88
75683;HTU21D;64295;44.772;39.872;2023-12-22T05:07:37;9.33;66.84
75683;HTU21D;64295;44.772;39.872;2023-12-22T05:10:03;9.33;66.84
75683;HTU21D;64295;44.772;39.872;2023-12-22T05:12:30;9.30;66.88
75683;HTU21D;64295;44.772;39.872;2023-12-22T05:14:56;9.34;66.83
75683;HTU21D;64295;44.772;39.872;2023-12-22T05:17:22;9.36;66.76
75683;HTU21D;64295;44.772;39.872;2023-12-22T05:19:48;9.35;66.75
75683;HTU21D;64295;44.772;39.872;2023-12-22T05:22:14;9.36;66.75
75683;HTU21D;64295;44.772;39.872;2023-12-22T05:24:40;9.37;66.75
75683;HTU21D;64295;44.772;39.872;2023-12-22T05:27:05;9.40;66.71
75683;HTU21D;64295;44.772;39.872;2023-12-22T05:29:31;9.42;66.66
75683;HTU21D;64295;44.772;39.872;2023-12-22T05:31:57;9.44;66.65
75683;HTU21D;64295;44.772;39.872;2023-12-22T05:34:23;9.42;66.67
75683;HTU21D;64295;44.772;39.872;2023-12-22T05:36:49;9.40;66.72
75683;HTU21D;64295;44.772;39.872;2023-12-22T05:39:15;9.40;66.75
75683;HTU21D;64295;44.772;39.872;2023-12-22T05:41:41;9.40;66.76
75683;HTU21D;64295;44.772;39.872;2023-12-22T05:44:07;9.42;66.69
75683;HTU21D;64295;44.772;39.872;2023-12-22T05:46:39;9.46;66.66
75683;HTU21D;64295;44.772;39.872;2023-12-22T05:49:05;9.46;66.70
75683;HTU21D;64295;44.772;39.872;2023-12-22T05:51:40;9.45;66.72
75683;HTU21D;64295;44.772;39.872;2023-12-22T05:54:09;9.46;66.73
75683;HTU21D;64295;44.772;39.872;2023-12-22T05:56:37;9.48;66.68
75683;HTU21D;64295;44.772;39.872;2023-12-22T05:59:02;9.48;66.68
75683;HTU21D;64295;44.772;39.872;2023-12-22T06:01:29;9.51;66.63
75683;HTU21D;64295;44.772;39.872;2023-12-22T06:03:55;9.54;66.60
75683;HTU21D;64295;44.772;39.872;2023-12-22T06:06:21;9.57;66.59
75683;HTU21D;64295;44.772;39.872;2023-12-22T06:08:47;9.60;66.54
75683;HTU21D;64295;44.772;39.872;2023-12-22T06:11:13;9.62;66.52
75683;HTU21D;64295;44.772;39.872;2023-12-22T06:13:39;9.63;66.53
75683;HTU21D;64295;44.772;39.872;2023-12-22T06:16:05;9.60;66.59
75683;HTU21D;64295;44.772;39.872;2023-12-22T06:18:31;9.60;66.62
75683;HTU21D;64295;44.772;39.872;2023-12-22T06:20:57;9.60;66.65
75683;HTU21D;64295;44.772;39.872;2023-12-22T06:23:23;9.63;66.60
75683;HTU21D;64295;44.772;39.872;2023-12-22T06:25:49;9.63;66.60
75683;HTU21D;64295;44.772;39.872;2023-12-22T06:28:15;9.65;66.57
75683;HTU21D;64295;44.772;39.872;2023-12-22T06:30:43;9.69;66.56
75683;HTU21D;64295;44.772;39.872;2023-12-22T06:33:09;9.74;66.48
75683;HTU21D;64295;44.772;39.872;2023-12-22T06:35:36;9.78;66.42
75683;HTU21D;64295;44.772;39.872;2023-12-22T06:38:03;9.82;66.35
75683;HTU21D;64295;44.772;39.872;2023-12-22T06:40:31;9.85;66.30
75683;HTU21D;64295;44.772;39.872;2023-12-22T06:42:57;9.90;66.28
75683;HTU21D;64295;44.772;39.872;2023-12-22T06:45:22;9.92;66.22
75683;HTU21D;64295;44.772;39.872;2023-12-22T06:47:48;9.97;66.17
75683;HTU21D;64295;44.772;39.872;2023-12-22T06:50:14;10.03;66.07
75683;HTU21D;64295;44.772;39.872;2023-12-22T06:52:40;10.05;66.03
75683;HTU21D;64295;44.772;39.872;2023-12-22T06:55:07;10.07;66.01
75683;HTU21D;64295;44.772;39.872;2023-12-22T06:57:33;10.08;66.01
75683;HTU21D;64295;44.772;39.872;2023-12-22T06:59:58;10.09;66.02
75683;HTU21D;64295;44.772;39.872;2023-12-22T07:02:25;10.07;66.07
75683;HTU21D;64295;44.772;39.872;2023-12-22T07:07:36;10.06;66.11
75683;HTU21D;64295;44.772;39.872;2023-12-22T07:10:02;10.05;66.11
75683;HTU21D;64295;44.772;39.872;2023-12-22T07:12:28;10.05;66.11
75683;HTU21D;64295;44.772;39.872;2023-12-22T07:14:54;10.07;66.10
75683;HTU21D;64295;44.772;39.872;2023-12-22T07:17:19;10.10;66.04
75683;HTU21D;64295;44.772;39.872;2023-12-22T07:19:45;10.13;65.97
75683;HTU21D;64295;44.772;39.872;2023-12-22T07:22:11;10.13;65.96
75683;HTU21D;64295;44.772;39.872;2023-12-22T07:24:37;10.14;65.96
75683;HTU21D;64295;44.772;39.872;2023-12-22T07:27:03;10.16;65.95
75683;HTU21D;64295;44.772;39.872;2023-12-22T07:29:30;10.21;65.90
75683;HTU21D;64295;44.772;39.872;2023-12-22T07:31:55;10.24;65.82
75683;HTU21D;64295;44.772;39.872;2023-12-22T07:34:21;10.27;65.75
75683;HTU21D;64295;44.772;39.872;2023-12-22T07:36:48;10.33;65.72
75683;HTU21D;64295;44.772;39.872;2023-12-22T07:39:14;10.40;65.58
75683;HTU21D;64295;44.772;39.872;2023-12-22T07:41:40;10.49;65.46
75683;HTU21D;64295;44.772;39.872;2023-12-22T07:44:06;10.59;65.32
75683;HTU21D;64295;44.772;39.872;2023-12-22T07:46:32;10.69;65.17
75683;HTU21D;64295;44.772;39.872;2023-12-22T07:48:58;10.77;65.08
75683;HTU21D;64295;44.772;39.872;2023-12-22T07:51:24;10.86;64.95
75683;HTU21D;64295;44.772;39.872;2023-12-22T07:53:50;10.95;64.85
75683;HTU21D;64295;44.772;39.872;2023-12-22T07:56:16;11.02;64.76
75683;HTU21D;64295;44.772;39.872;2023-12-22T07:58:42;11.08;64.72
75683;HTU21D;64295;44.772;39.872;2023-12-22T08:01:08;11.09;64.74
75683;HTU21D;64295;44.772;39.872;2023-12-22T08:03:34;11.14;64.74
75683;HTU21D;64295;44.772;39.872;2023-12-22T08:06:00;11.19;64.71
75683;HTU21D;64295;44.772;39.872;2023-12-22T08:08:26;11.26;64.66
75683;HTU21D;64295;44.772;39.872;2023-12-22T08:10:52;11.33;64.59
75683;HTU21D;64295;44.772;39.872;2023-12-22T08:13:18;11.41;64.50
75683;HTU21D;64295;44.772;39.872;2023-12-22T08:15:44;11.48;64.43
75683;HTU21D;64295;44.772;39.872;2023-12-22T08:18:10;11.60;64.29
75683;HTU21D;64295;44.772;39.872;2023-12-22T08:20:37;11.72;64.14
75683;HTU21D;64295;44.772;39.872;2023-12-22T08:23:03;11.88;63.92
75683;HTU21D;64295;44.772;39.872;2023-12-22T08:25:29;12.05;63.71
75683;HTU21D;64295;44.772;39.872;2023-12-22T08:27:55;12.20;63.54
75683;HTU21D;64295;44.772;39.872;2023-12-22T08:30:21;12.32;63.39
75683;HTU21D;64295;44.772;39.872;2023-12-22T08:32:46;12.46;63.23
75683;HTU21D;64295;44.772;39.872;2023-12-22T08:35:12;12.59;63.12
75683;HTU21D;64295;44.772;39.872;2023-12-22T08:37:38;12.71;63.06
75683;HTU21D;64295;44.772;39.872;2023-12-22T08:40:05;12.78;62.98
75683;HTU21D;64295;44.772;39.872;2023-12-22T08:42:31;12.84;63.01
75683;HTU21D;64295;44.772;39.872;2023-12-22T08:44:58;12.86;63.08
75683;HTU21D;64295;44.772;39.872;2023-12-22T08:47:24;12.91;63.11
75683;HTU21D;64295;44.772;39.872;2023-12-22T08:49:50;12.97;63.08
75683;HTU21D;64295;44.772;39.872;2023-12-22T08:52:16;13.04;63.03
75683;HTU21D;64295;44.772;39.872;2023-12-22T08:54:42;13.10;63.03
75683;HTU21D;64295;44.772;39.872;2023-12-22T08:57:08;13.23;62.89
75683;HTU21D;64295;44.772;39.872;2023-12-22T08:59:34;13.38;62.70
75683;HTU21D;64295;44.772;39.872;2023-12-22T09:02:00;13.49;62.56
75683;HTU21D;64295;44.772;39.872;2023-12-22T09:04:26;13.50;62.63
75683;HTU21D;64295;44.772;39.872;2023-12-22T09:06:52;13.54;62.69
75683;HTU21D;64295;44.772;39.872;2023-12-22T09:09:18;13.66;62.54
75683;HTU21D;64295;44.772;39.872;2023-12-22T09:11:44;13.73;62.44
75683;HTU21D;64295;44.772;39.872;2023-12-22T09:14:10;13.71;62.57
75683;HTU21D;64295;44.772;39.872;2023-12-22T09:16:37;13.68;62.70
75683;HTU21D;64295;44.772;39.872;2023-12-22T09:19:03;13.68;62.76
75683;HTU21D;64295;44.772;39.872;2023-12-22T09:21:29;13.67;62.86
75683;HTU21D;64295;44.772;39.872;2023-12-22T09:23:55;13.66;62.92
75683;HTU21D;64295;44.772;39.872;2023-12-22T09:26:21;13.66;62.98
75683;HTU21D;64295;44.772;39.872;2023-12-22T09:28:47;13.70;62.95
75683;HTU21D;64295;44.772;39.872;2023-12-22T09:31:13;13.69;62.97
75683;HTU21D;64295;44.772;39.872;2023-12-22T09:33:40;13.68;63.04
75683;HTU21D;64295;44.772;39.872;2023-12-22T09:36:07;13.66;63.08
75683;HTU21D;64295;44.772;39.872;2023-12-22T09:38:33;13.65;63.11
75683;HTU21D;64295;44.772;39.872;2023-12-22T09:41:00;13.64;63.13
75683;HTU21D;64295;44.772;39.872;2023-12-22T09:43:27;13.62;63.16
75683;HTU21D;64295;44.772;39.872;2023-12-22T09:45:53;13.59;63.19
75683;HTU21D;64295;44.772;39.872;2023-12-22T09:48:21;13.59;63.19
75683;HTU21D;64295;44.772;39.872;2023-12-22T09:50:53;13.59;63.18
75683;HTU21D;64295;44.772;39.872;2023-12-22T09:53:24;13.61;63.14
75683;HTU21D;64295;44.772;39.872;2023-12-22T09:55:51;13.61;63.11
75683;HTU21D;64295;44.772;39.872;2023-12-22T09:58:18;13.64;63.07
75683;HTU21D;64295;44.772;39.872;2023-12-22T10:00:44;13.65;63.00
75683;HTU21D;64295;44.772;39.872;2023-12-22T10:03:12;13.65;62.99
75683;HTU21D;64295;44.772;39.872;2023-12-22T10:05:40;13.66;62.99
75683;HTU21D;64295;44.772;39.872;2023-12-22T10:08:08;13.68;62.94
75683;HTU21D;64295;44.772;39.872;2023-12-22T10:10:38;13.68;62.90
75683;HTU21D;64295;44.772;39.872;2023-12-22T10:13:05;13.69;62.89
75683;HTU21D;64295;44.772;39.872;2023-12-22T10:15:39;13.69;62.87
75683;HTU21D;64295;44.772;39.872;2023-12-22T10:18:09;13.68;62.87
75683;HTU21D;64295;44.772;39.872;2023-12-22T10:20:35;13.68;62.86
75683;HTU21D;64295;44.772;39.872;2023-12-22T10:23:02;13.68;62.84
75683;HTU21D;64295;44.772;39.872;2023-12-22T10:25:28;13.68;62.81
75683;HTU21D;64295;44.772;39.872;2023-12-22T10:27:55;13.69;62.79
75683;HTU21D;64295;44.772;39.872;2023-12-22T10:30:21;13.70;62.80
75683;HTU21D;64295;44.772;39.872;2023-12-22T10:32:50;13.70;62.75
75683;HTU21D;64295;44.772;39.872;2023-12-22T10:35:17;13.68;62.77
75683;HTU21D;64295;44.772;39.872;2023-12-22T10:37:45;13.70;62.75
75683;HTU21D;64295;44.772;39.872;2023-12-22T10:40:12;13.71;62.75
75683;HTU21D;64295;44.772;39.872;2023-12-22T10:42:40;13.70;62.73
75683;HTU21D;64295;44.772;39.872;2023-12-22T10:45:07;13.73;62.70
75683;HTU21D;64295;44.772;39.872;2023-12-22T10:47:33;13.76;62.65
75683;HTU21D;64295;44.772;39.872;2023-12-22T10:50:03;13.77;62.61
75683;HTU21D;64295;44.772;39.872;2023-12-22T10:52:32;13.81;62.57
75683;HTU21D;64295;44.772;39.872;2023-12-22T10:54:58;13.82;62.53
75683;HTU21D;64295;44.772;39.872;2023-12-22T10:57:26;13.84;62.52
75683;HTU21D;64295;44.772;39.872;2023-12-22T10:59:53;13.86;62.46
75683;HTU21D;64295;44.772;39.872;2023-12-22T11:02:22;13.90;62.42
75683;HTU21D;64295;44.772;39.872;2023-12-22T11:05:01;13.93;62.38
75683;HTU21D;64295;44.772;39.872;2023-12-22T11:07:28;13.95;62.35
75683;HTU21D;64295;44.772;39.872;2023-12-22T11:09:56;13.98;62.32
75683;HTU21D;64295;44.772;39.872;2023-12-22T11:12:28;14.01;62.27
75683;HTU21D;64295;44.772;39.872;2023-12-22T11:14:55;14.04;62.24
75683;HTU21D;64295;44.772;39.872;2023-12-22T11:17:22;14.07;62.21
75683;HTU21D;64295;44.772;39.872;2023-12-22T11:19:53;14.07;62.22
75683;HTU21D;64295;44.772;39.872;2023-12-22T11:22:21;14.07;62.24
75683;HTU21D;64295;44.772;39.872;2023-12-22T11:24:48;14.07;62.25
75683;HTU21D;64295;44.772;39.872;2023-12-22T11:27:19;14.06;62.28
75683;HTU21D;64295;44.772;39.872;2023-12-22T11:29:47;14.06;62.30
75683;HTU21D;64295;44.772;39.872;2023-12-22T11:32:16;14.05;62.32
75683;HTU21D;64295;44.772;39.872;2023-12-22T11:34:48;14.05;62.32
75683;HTU21D;64295;44.772;39.872;2023-12-22T11:37:15;14.03;62.36
75683;HTU21D;64295;44.772;39.872;2023-12-22T11:39:42;13.99;62.41
75683;HTU21D;64295;44.772;39.872;2023-12-22T11:42:13;14.01;62.41
75683;HTU21D;64295;44.772;39.872;2023-12-22T11:44:40;13.96;62.49
75683;HTU21D;64295;44.772;39.872;2023-12-22T11:47:09;13.95;62.53
75683;HTU21D;64295;44.772;39.872;2023-12-22T11:49:37;13.93;62.57
75683;HTU21D;64295;44.772;39.872;2023-12-22T11:52:13;13.93;62.57
75683;HTU21D;64295;44.772;39.872;2023-12-22T11:54:53;13.90;62.60
75683;HTU21D;64295;44.772;39.872;2023-12-22T11:57:38;13.91;62.61
75683;HTU21D;64295;44.772;39.872;2023-12-22T12:02:55;13.89;62.65
75683;HTU21D;64295;44.772;39.872;2023-12-22T12:05:21;13.86;62.70
75683;HTU21D;64295;44.772;39.872;2023-12-22T12:07:48;13.84;62.76
75683;HTU21D;64295;44.772;39.872;2023-12-22T12:10:36;13.81;62.79
75683;HTU21D;64295;44.772;39.872;2023-12-22T12:13:22;13.79;62.86
75683;HTU21D;64295;44.772;39.872;2023-12-22T12:15:50;13.75;62.91
75683;HTU21D;64295;44.772;39.872;2023-12-22T12:18:21;13.66;63.02
75683;HTU21D;64295;44.772;39.872;2023-12-22T12:20:48;13.61;63.13
75683;HTU21D;64295;44.772;39.872;2023-12-22T12:23:15;13.59;63.16
75683;HTU21D;64295;44.772;39.872;2023-12-22T12:25:42;13.59;63.19
75683;HTU21D;64295;44.772;39.872;2023-12-22T12:28:08;13.53;63.23
75683;HTU21D;64295;44.772;39.872;2023-12-22T12:30:36;13.50;63.30
75683;HTU21D;64295;44.772;39.872;2023-12-22T12:33:09;13.45;63.34
75683;HTU21D;64295;44.772;39.872;2023-12-22T12:35:37;13.41;63.37
75683;HTU21D;64295;44.772;39.872;2023-12-22T12:38:03;13.41;63.31
75683;HTU21D;64295;44.772;39.872;2023-12-22T12:40:30;13.44;63.18
75683;HTU21D;64295;44.772;39.872;2023-12-22T12:42:58;13.50;62.98
75683;HTU21D;64295;44.772;39.872;2023-12-22T12:45:25;13.50;62.88
75683;HTU21D;64295;44.772;39.872;2023-12-22T12:47:55;13.52;62.78
75683;HTU21D;64295;44.772;39.872;2023-12-22T12:50:22;13.54;62.71
75683;HTU21D;64295;44.772;39.872;2023-12-22T12:52:49;13.55;62.65
75683;HTU21D;64295;44.772;39.872;2023-12-22T12:55:19;13.55;62.63
75683;HTU21D;64295;44.772;39.872;2023-12-22T12:57:48;13.55;62.63
75683;HTU21D;64295;44.772;39.872;2023-12-22T13:00:16;13.54;62.63
75683;HTU21D;64295;44.772;39.872;2023-12-22T13:02:42;13.51;62.67
75683;HTU21D;64295;44.772;39.872;2023-12-22T13:05:08;13.47;62.73
75683;HTU21D;64295;44.772;39.872;2023-12-22T13:07:36;13.44;62.79
75683;HTU21D;64295;44.772;39.872;2023-12-22T13:10:03;13.39;62.85
75683;HTU21D;64295;44.772;39.872;2023-12-22T13:12:32;13.33;62.95
75683;HTU21D;64295;44.772;39.872;2023-12-22T13:15:02;13.29;63.02
75683;HTU21D;64295;44.772;39.872;2023-12-22T13:17:29;13.24;63.07
75683;HTU21D;64295;44.772;39.872;2023-12-22T13:19:55;13.17;63.18
75683;HTU21D;64295;44.772;39.872;2023-12-22T13:22:21;13.12;63.24
75683;HTU21D;64295;44.772;39.872;2023-12-22T13:24:56;13.09;63.27
75683;HTU21D;64295;44.772;39.872;2023-12-22T13:27:25;13.07;63.27
75683;HTU21D;64295;44.772;39.872;2023-12-22T13:29:51;13.04;63.30
75683;HTU21D;64295;44.772;39.872;2023-12-22T13:32:19;12.97;63.37
75683;HTU21D;64295;44.772;39.872;2023-12-22T13:34:50;12.90;63.47
75683;HTU21D;64295;44.772;39.872;2023-12-22T13:37:16;12.86;63.53
75683;HTU21D;64295;44.772;39.872;2023-12-22T13:39:42;12.84;63.53
75683;HTU21D;64295;44.772;39.872;2023-12-22T13:42:16;12.80;63.53
75683;HTU21D;64295;44.772;39.872;2023-12-22T13:44:46;12.77;63.58
75683;HTU21D;64295;44.772;39.872;2023-12-22T13:47:15;12.74;63.62
75683;HTU21D;64295;44.772;39.872;2023-12-22T13:49:42;12.69;63.66
75683;HTU21D;64295;44.772;39.872;2023-12-22T13:52:30;12.65;63.65
75683;HTU21D;64295;44.772;39.872;2023-12-22T13:55:12;12.64;63.60
75683;HTU21D;64295;44.772;39.872;2023-12-22T13:57:39;12.64;63.57
75683;HTU21D;64295;44.772;39.872;2023-12-22T14:00:28;12.61;63.52
75683;HTU21D;64295;44.772;39.872;2023-12-22T14:02:55;12.60;63.47
75683;HTU21D;64295;44.772;39.872;2023-12-22T14:05:21;12.60;63.41
75683;HTU21D;64295;44.772;39.872;2023-12-22T14:07:48;12.61;63.34
75683;HTU21D;64295;44.772;39.872;2023-12-22T14:10:14;12.59;63.30
75683;HTU21D;64295;44.772;39.872;2023-12-22T14:12:40;12.57;63.26
75683;HTU21D;64295;44.772;39.872;2023-12-22T14:15:10;12.57;63.24
75683;HTU21D;64295;44.772;39.872;2023-12-22T14:17:37;12.56;63.18
75683;HTU21D;64295;44.772;39.872;2023-12-22T14:20:03;12.57;63.11
75683;HTU21D;64295;44.772;39.872;2023-12-22T14:22:36;12.57;63.05
75683;HTU21D;64295;44.772;39.872;2023-12-22T14:25:03;12.57;62.97
75683;HTU21D;64295;44.772;39.872;2023-12-22T14:27:29;12.59;62.86
75683;HTU21D;64295;44.772;39.872;2023-12-22T14:29:55;12.63;62.69
75683;HTU21D;64295;44.772;39.872;2023-12-22T14:32:20;12.69;62.49
75683;HTU21D;64295;44.772;39.872;2023-12-22T14:34:46;12.73;62.33
75683;HTU21D;64295;44.772;39.872;2023-12-22T14:37:13;12.74;62.19
75683;HTU21D;64295;44.772;39.872;2023-12-22T14:39:39;12.76;62.11
75683;HTU21D;64295;44.772;39.872;2023-12-22T14:42:05;12.77;62.04
75683;HTU21D;64295;44.772;39.872;2023-12-22T14:44:31;12.77;62.00
75683;HTU21D;64295;44.772;39.872;2023-12-22T14:46:57;12.78;61.98
75683;HTU21D;64295;44.772;39.872;2023-12-22T14:49:23;12.76;61.89
75683;HTU21D;64295;44.772;39.872;2023-12-22T14:51:49;12.77;61.82
75683;HTU21D;64295;44.772;39.872;2023-12-22T14:54:20;12.77;61.74
75683;HTU21D;64295;44.772;39.872;2023-12-22T14:56:49;12.79;61.68
75683;HTU21D;64295;44.772;39.872;2023-12-22T14:59:15;12.77;61.65
75683;HTU21D;64295;44.772;39.872;2023-12-22T15:01:41;12.77;61.60
75683;HTU21D;64295;44.772;39.872;2023-12-22T15:04:07;12.76;61.57
75683;HTU21D;64295;44.772;39.872;2023-12-22T15:06:40;12.75;61.56
75683;HTU21D;64295;44.772;39.872;2023-12-22T15:09:06;12.79;61.47
75683;HTU21D;64295;44.772;39.872;2023-12-22T15:11:32;12.84;61.28